sensor_id;sensor_type;location;lat;lon;timestamp;temperature;humidity
39045;DHT22;52192;52.002;5.956;2023-06-01T00:01:58;15.90;65.50
39045;DHT22;52192;52.002;5.956;2023-06-01T00:04:24;15.80;65.40
39045;DHT22;52192;52.002;5.956;2023-06-01T00:06:49;15.80;65.50
39045;DHT22;52192;52.002;5.956;2023-06-01T00:09:15;15.80;65.40
39045;DHT22;52192;52.002;5.956;2023-06-01T00:11:41;15.80;65.50
39045;DHT22;52192;52.002;5.956;2023-06-01T00:14:07;15.70;65.60
39045;DHT22;52192;52.002;5.956;2023-06-01T00:16:32;15.60;65.80
39045;DHT22;52192;52.002;5.956;2023-06-01T00:18:59;15.60;65.90
39045;DHT22;52192;52.002;5.956;2023-06-01T00:21:27;15.50;66.00
39045;DHT22;52192;52.002;5.956;2023-06-01T00:23:58;15.50;66.10
39045;DHT22;52192;52.002;5.956;2023-06-01T00:26:24;15.50;66.10
39045;DHT22;52192;52.002;5.956;2023-06-01T00:28:50;15.50;66.10
39045;DHT22;52192;52.002;5.956;2023-06-01T00:31:16;15.50;66.20
39045;DHT22;52192;52.002;5.956;2023-06-01T00:33:42;15.40;66.50
39045;DHT22;52192;52.002;5.956;2023-06-01T00:36:08;15.50;66.60
39045;DHT22;52192;52.002;5.956;2023-06-01T00:38:33;15.50;67.20
39045;DHT22;52192;52.002;5.956;2023-06-01T00:41:00;15.50;66.60
39045;DHT22;52192;52.002;5.956;2023-06-01T00:43:26;15.50;66.50
39045;DHT22;52192;52.002;5.956;2023-06-01T00:45:52;15.50;66.60
39045;DHT22;52192;52.002;5.956;2023-06-01T00:48:18;15.40;66.60
39045;DHT22;52192;52.002;5.956;2023-06-01T00:50:46;15.50;66.70
39045;DHT22;52192;52.002;5.956;2023-06-01T00:53:17;15.50;66.60
39045;DHT22;52192;52.002;5.956;2023-06-01T00:55:43;15.50;66.60
39045;DHT22;52192;52.002;5.956;2023-06-01T00:58:09;15.40;66.60
39045;DHT22;52192;52.002;5.956;2023-06-01T01:00:35;15.40;66.70
39045;DHT22;52192;52.002;5.956;2023-06-01T01:03:06;15.40;66.80
39045;DHT22;52192;52.002;5.956;2023-06-01T01:05:38;15.40;66.70
39045;DHT22;52192;52.002;5.956;2023-06-01T01:13:58;15.30;66.90
39045;DHT22;52192;52.002;5.956;2023-06-01T01:16:39;15.40;66.90
39045;DHT22;52192;52.002;5.956;2023-06-01T01:19:35;15.30;66.90
39045;DHT22;52192;52.002;5.956;2023-06-01T01:22:21;15.40;67.00
39045;DHT22;52192;52.002;5.956;2023-06-01T01:30:15;15.30;67.30
39045;DHT22;52192;52.002;5.956;2023-06-01T01:32:45;15.30;67.70
39045;DHT22;52192;52.002;5.956;2023-06-01T01:35:12;15.40;67.20
39045;DHT22;52192;52.002;5.956;2023-06-01T01:37:53;15.40;67.20
39045;DHT22;52192;52.002;5.956;2023-06-01T01:40:19;15.40;67.10
39045;DHT22;52192;52.002;5.956;2023-06-01T01:42:46;15.40;67.30
39045;DHT22;52192;52.002;5.956;2023-06-01T01:45:12;15.40;67.30
39045;DHT22;52192;52.002;5.956;2023-06-01T01:50:32;15.50;67.20
39045;DHT22;52192;52.002;5.956;2023-06-01T01:53:00;15.40;67.30
39045;DHT22;52192;52.002;5.956;2023-06-01T01:55:28;15.40;67.30
39045;DHT22;52192;52.002;5.956;2023-06-01T01:57:56;15.40;67.40
39045;DHT22;52192;52.002;5.956;2023-06-01T02:00:24;15.30;67.50
39045;DHT22;52192;52.002;5.956;2023-06-01T02:02:50;15.30;67.50
39045;DHT22;52192;52.002;5.956;2023-06-01T02:05:15;15.30;67.60
39045;DHT22;52192;52.002;5.956;2023-06-01T02:07:41;15.30;67.60
39045;DHT22;52192;52.002;5.956;2023-06-01T02:10:07;15.20;67.60
39045;DHT22;52192;52.002;5.956;2023-06-01T02:12:33;15.20;67.50
39045;DHT22;52192;52.002;5.956;2023-06-01T02:14:58;15.20;67.50
39045;DHT22;52192;52.002;5.956;2023-06-01T02:17:24;15.10;67.60
39045;DHT22;52192;52.002;5.956;2023-06-01T02:19:52;15.00;67.60
39045;DHT22;52192;52.002;5.956;2023-06-01T02:22:18;15.00;67.60
39045;DHT22;52192;52.002;5.956;2023-06-01T02:24:43;14.90;67.60
39045;DHT22;52192;52.002;5.956;2023-06-01T02:27:09;14.90;67.80
39045;DHT22;52192;52.002;5.956;2023-06-01T02:29:35;14.80;67.70
39045;DHT22;52192;52.002;5.956;2023-06-01T02:32:00;14.80;67.80
39045;DHT22;52192;52.002;5.956;2023-06-01T02:34:26;14.70;67.90
39045;DHT22;52192;52.002;5.956;2023-06-01T02:36:52;14.70;67.90
39045;DHT22;52192;52.002;5.956;2023-06-01T02:39:21;14.80;67.90
39045;DHT22;52192;52.002;5.956;2023-06-01T02:41:47;14.70;67.80
39045;DHT22;52192;52.002;5.956;2023-06-01T02:44:13;14.70;67.90
39045;DHT22;52192;52.002;5.956;2023-06-01T02:46:38;14.70;67.80
39045;DHT22;52192;52.002;5.956;2023-06-01T02:49:04;14.70;67.80
39045;DHT22;52192;52.002;5.956;2023-06-01T02:51:30;14.80;67.80
39045;DHT22;52192;52.002;5.956;2023-06-01T02:53:56;14.80;67.80
39045;DHT22;52192;52.002;5.956;2023-06-01T02:56:22;14.80;67.80
39045;DHT22;52192;52.002;5.956;2023-06-01T02:58:48;14.80;68.00
39045;DHT22;52192;52.002;5.956;2023-06-01T03:01:14;14.80;67.80
39045;DHT22;52192;52.002;5.956;2023-06-01T03:03:41;14.80;67.80
39045;DHT22;52192;52.002;5.956;2023-06-01T03:06:07;14.80;67.70
39045;DHT22;52192;52.002;5.956;2023-06-01T03:08:34;14.90;67.80
39045;DHT22;52192;52.002;5.956;2023-06-01T03:11:00;14.90;67.70
39045;DHT22;52192;52.002;5.956;2023-06-01T03:13:26;14.90;67.80
39045;DHT22;52192;52.002;5.956;2023-06-01T03:15:52;14.90;67.80
39045;DHT22;52192;52.002;5.956;2023-06-01T03:18:17;14.90;67.80
39045;DHT22;52192;52.002;5.956;2023-06-01T03:20:43;14.80;68.00
39045;DHT22;52192;52.002;5.956;2023-06-01T03:23:09;14.80;68.10
39045;DHT22;52192;52.002;5.956;2023-06-01T03:25:34;14.80;68.10
39045;DHT22;52192;52.002;5.956;2023-06-01T03:28:00;14.80;68.10
39045;DHT22;52192;52.002;5.956;2023-06-01T03:30:26;14.80;68.10
39045;DHT22;52192;52.002;5.956;2023-06-01T03:32:52;14.80;68.10
39045;DHT22;52192;52.002;5.956;2023-06-01T03:35:17;14.70;68.20
39045;DHT22;52192;52.002;5.956;2023-06-01T03:37:44;14.70;68.20
39045;DHT22;52192;52.002;5.956;2023-06-01T03:40:10;14.70;68.30
39045;DHT22;52192;52.002;5.956;2023-06-01T03:42:44;14.70;68.20
39045;DHT22;52192;52.002;5.956;2023-06-01T03:45:11;14.70;68.30
39045;DHT22;52192;52.002;5.956;2023-06-01T03:47:38;14.70;68.20
39045;DHT22;52192;52.002;5.956;2023-06-01T03:50:04;14.70;68.20
39045;DHT22;52192;52.002;5.956;2023-06-01T03:52:32;14.60;68.70
39045;DHT22;52192;52.002;5.956;2023-06-01T03:54:59;14.60;68.60
39045;DHT22;52192;52.002;5.956;2023-06-01T03:57:26;14.60;68.60
39045;DHT22;52192;52.002;5.956;2023-06-01T03:59:52;14.60;68.50
39045;DHT22;52192;52.002;5.956;2023-06-01T04:02:18;14.60;68.40
39045;DHT22;52192;52.002;5.956;2023-06-01T04:04:45;14.60;68.50
39045;DHT22;52192;52.002;5.956;2023-06-01T04:07:13;14.60;68.50
39045;DHT22;52192;52.002;5.956;2023-06-01T04:09:44;14.60;68.60
39045;DHT22;52192;52.002;5.956;2023-06-01T04:12:12;14.60;68.50
39045;DHT22;52192;52.002;5.956;2023-06-01T04:14:38;14.60;68.40
39045;DHT22;52192;52.002;5.956;2023-06-01T04:17:04;14.70;68.40
39045;DHT22;52192;52.002;5.956;2023-06-01T04:19:30;14.70;68.40
39045;DHT22;52192;52.002;5.956;2023-06-01T04:21:56;14.70;68.40
39045;DHT22;52192;52.002;5.956;2023-06-01T04:24:22;14.70;68.30
39045;DHT22;52192;52.002;5.956;2023-06-01T04:26:48;14.70;68.30
39045;DHT22;52192;52.002;5.956;2023-06-01T04:29:16;14.60;68.30
39045;DHT22;52192;52.002;5.956;2023-06-01T04:31:45;14.70;68.50
39045;DHT22;52192;52.002;5.956;2023-06-01T04:34:10;14.70;68.50
39045;DHT22;52192;52.002;5.956;2023-06-01T04:36:36;14.80;68.50
39045;DHT22;52192;52.002;5.956;2023-06-01T04:39:07;14.80;68.40
39045;DHT22;52192;52.002;5.956;2023-06-01T04:41:34;14.90;68.50
39045;DHT22;52192;52.002;5.956;2023-06-01T04:44:02;14.90;68.30
39045;DHT22;52192;52.002;5.956;2023-06-01T04:46:31;15.00;68.20
39045;DHT22;52192;52.002;5.956;2023-06-01T04:48:57;15.00;68.00
39045;DHT22;52192;52.002;5.956;2023-06-01T04:51:25;15.00;68.00
39045;DHT22;52192;52.002;5.956;2023-06-01T04:53:53;15.00;68.00
39045;DHT22;52192;52.002;5.956;2023-06-01T04:56:22;15.00;67.90
39045;DHT22;52192;52.002;5.956;2023-06-01T04:58:55;15.00;68.00
39045;DHT22;52192;52.002;5.956;2023-06-01T05:01:25;15.00;68.10
39045;DHT22;52192;52.002;5.956;2023-06-01T05:03:52;14.90;68.00
39045;DHT22;52192;52.002;5.956;2023-06-01T05:06:20;14.90;68.10
39045;DHT22;52192;52.002;5.956;2023-06-01T05:08:46;14.90;68.20
39045;DHT22;52192;52.002;5.956;2023-06-01T05:11:13;14.90;68.10
39045;DHT22;52192;52.002;5.956;2023-06-01T05:13:39;14.90;68.20
39045;DHT22;52192;52.002;5.956;2023-06-01T05:16:06;14.90;68.10
39045;DHT22;52192;52.002;5.956;2023-06-01T05:18:33;14.90;68.10
39045;DHT22;52192;52.002;5.956;2023-06-01T05:20:59;15.00;68.00
39045;DHT22;52192;52.002;5.956;2023-06-01T05:23:26;15.00;67.90
39045;DHT22;52192;52.002;5.956;2023-06-01T05:25:52;15.00;68.00
39045;DHT22;52192;52.002;5.956;2023-06-01T05:28:20;15.00;67.90
39045;DHT22;52192;52.002;5.956;2023-06-01T05:30:46;15.00;67.90
39045;DHT22;52192;52.002;5.956;2023-06-01T05:33:12;15.00;67.60
39045;DHT22;52192;52.002;5.956;2023-06-01T05:35:38;15.00;67.60
39045;DHT22;52192;52.002;5.956;2023-06-01T05:38:04;15.00;67.60
39045;DHT22;52192;52.002;5.956;2023-06-01T05:40:29;15.00;67.50
39045;DHT22;52192;52.002;5.956;2023-06-01T05:42:55;15.00;67.50
39045;DHT22;52192;52.002;5.956;2023-06-01T05:45:21;15.00;67.50
39045;DHT22;52192;52.002;5.956;2023-06-01T05:47:47;15.00;67.60
39045;DHT22;52192;52.002;5.956;2023-06-01T05:50:12;15.10;67.50
39045;DHT22;52192;52.002;5.956;2023-06-01T05:52:38;15.10;67.50
39045;DHT22;52192;52.002;5.956;2023-06-01T05:55:05;15.10;67.40
39045;DHT22;52192;52.002;5.956;2023-06-01T05:57:31;15.20;67.40
39045;DHT22;52192;52.002;5.956;2023-06-01T05:59:56;15.30;67.40
39045;DHT22;52192;52.002;5.956;2023-06-01T06:02:22;15.30;67.40
39045;DHT22;52192;52.002;5.956;2023-06-01T06:04:48;15.40;67.20
39045;DHT22;52192;52.002;5.956;2023-06-01T06:07:14;15.40;67.10
39045;DHT22;52192;52.002;5.956;2023-06-01T06:09:40;15.30;67.00
39045;DHT22;52192;52.002;5.956;2023-06-01T06:12:06;15.40;67.10
39045;DHT22;52192;52.002;5.956;2023-06-01T06:14:32;15.40;67.00
39045;DHT22;52192;52.002;5.956;2023-06-01T06:16:59;15.40;66.80
39045;DHT22;52192;52.002;5.956;2023-06-01T06:19:25;15.40;66.80
39045;DHT22;52192;52.002;5.956;2023-06-01T06:21:51;15.40;66.80
39045;DHT22;52192;52.002;5.956;2023-06-01T06:24:17;15.50;66.70
39045;DHT22;52192;52.002;5.956;2023-06-01T06:26:42;15.60;66.60
39045;DHT22;52192;52.002;5.956;2023-06-01T06:29:08;15.60;67.10
39045;DHT22;52192;52.002;5.956;2023-06-01T06:31:33;15.70;66.30
39045;DHT22;52192;52.002;5.956;2023-06-01T06:33:59;15.70;66.30
39045;DHT22;52192;52.002;5.956;2023-06-01T06:36:25;15.70;66.00
39045;DHT22;52192;52.002;5.956;2023-06-01T06:38:51;15.60;66.10
39045;DHT22;52192;52.002;5.956;2023-06-01T06:41:17;15.60;66.00
39045;DHT22;52192;52.002;5.956;2023-06-01T06:43:42;15.60;66.00
39045;DHT22;52192;52.002;5.956;2023-06-01T06:46:08;15.70;66.00
39045;DHT22;52192;52.002;5.956;2023-06-01T06:48:34;15.60;65.90
39045;DHT22;52192;52.002;5.956;2023-06-01T06:51:01;15.60;66.00
39045;DHT22;52192;52.002;5.956;2023-06-01T06:53:27;15.60;65.90
39045;DHT22;52192;52.002;5.956;2023-06-01T06:55:53;15.70;66.00
39045;DHT22;52192;52.002;5.956;2023-06-01T06:58:18;15.90;65.90
39045;DHT22;52192;52.002;5.956;2023-06-01T07:00:44;16.00;65.40
39045;DHT22;52192;52.002;5.956;2023-06-01T07:03:10;16.00;65.00
39045;DHT22;52192;52.002;5.956;2023-06-01T07:05:36;16.00;65.00
39045;DHT22;52192;52.002;5.956;2023-06-01T07:08:01;16.10;64.90
39045;DHT22;52192;52.002;5.956;2023-06-01T07:10:27;16.10;64.90
39045;DHT22;52192;52.002;5.956;2023-06-01T07:12:53;16.20;64.70
39045;DHT22;52192;52.002;5.956;2023-06-01T07:15:18;16.40;64.60
39045;DHT22;52192;52.002;5.956;2023-06-01T07:17:44;16.50;64.30
39045;DHT22;52192;52.002;5.956;2023-06-01T07:20:10;16.40;64.00
39045;DHT22;52192;52.002;5.956;2023-06-01T07:22:37;16.40;64.00
39045;DHT22;52192;52.002;5.956;2023-06-01T07:25:04;16.30;64.20
39045;DHT22;52192;52.002;5.956;2023-06-01T07:27:30;16.30;64.20
39045;DHT22;52192;52.002;5.956;2023-06-01T07:29:57;16.30;64.30
39045;DHT22;52192;52.002;5.956;2023-06-01T07:32:23;16.20;64.10
39045;DHT22;52192;52.002;5.956;2023-06-01T07:34:50;16.20;64.30
39045;DHT22;52192;52.002;5.956;2023-06-01T07:37:16;16.10;64.20
39045;DHT22;52192;52.002;5.956;2023-06-01T07:39:41;16.10;64.50
39045;DHT22;52192;52.002;5.956;2023-06-01T07:42:07;16.20;64.50
39045;DHT22;52192;52.002;5.956;2023-06-01T07:44:33;16.40;64.20
39045;DHT22;52192;52.002;5.956;2023-06-01T07:46:58;16.60;63.90
39045;DHT22;52192;52.002;5.956;2023-06-01T07:49:24;16.60;63.50
39045;DHT22;52192;52.002;5.956;2023-06-01T07:51:50;16.60;63.40
39045;DHT22;52192;52.002;5.956;2023-06-01T07:54:17;16.70;63.50
39045;DHT22;52192;52.002;5.956;2023-06-01T07:56:43;16.80;63.20
39045;DHT22;52192;52.002;5.956;2023-06-01T07:59:09;17.00;63.00
39045;DHT22;52192;52.002;5.956;2023-06-01T08:01:36;17.20;62.70
39045;DHT22;52192;52.002;5.956;2023-06-01T08:04:01;17.20;62.00
39045;DHT22;52192;52.002;5.956;2023-06-01T08:06:27;17.20;62.10
39045;DHT22;52192;52.002;5.956;2023-06-01T08:08:54;17.30;62.30
39045;DHT22;52192;52.002;5.956;2023-06-01T08:11:20;17.50;62.30
39045;DHT22;52192;52.002;5.956;2023-06-01T08:13:47;17.70;61.90
39045;DHT22;52192;52.002;5.956;2023-06-01T08:16:13;17.90;61.30
39045;DHT22;52192;52.002;5.956;2023-06-01T08:18:39;18.00;61.00
39045;DHT22;52192;52.002;5.956;2023-06-01T08:21:05;18.10;61.00
39045;DHT22;52192;52.002;5.956;2023-06-01T08:23:31;18.30;60.70
39045;DHT22;52192;52.002;5.956;2023-06-01T08:25:56;18.30;60.60
39045;DHT22;52192;52.002;5.956;2023-06-01T08:28:22;18.40;60.40
39045;DHT22;52192;52.002;5.956;2023-06-01T08:30:48;18.60;60.30
39045;DHT22;52192;52.002;5.956;2023-06-01T08:33:14;18.70;60.10
39045;DHT22;52192;52.002;5.956;2023-06-01T08:35:40;18.70;59.30
39045;DHT22;52192;52.002;5.956;2023-06-01T08:38:06;18.60;58.90
39045;DHT22;52192;52.002;5.956;2023-06-01T08:40:32;18.60;58.80
39045;DHT22;52192;52.002;5.956;2023-06-01T08:45:29;18.60;58.90
39045;DHT22;52192;52.002;5.956;2023-06-01T08:47:55;18.70;58.90
39045;DHT22;52192;52.002;5.956;2023-06-01T08:50:22;18.70;58.80
39045;DHT22;52192;52.002;5.956;2023-06-01T08:52:49;18.80;58.90
39045;DHT22;52192;52.002;5.956;2023-06-01T08:55:18;19.00;58.70
39045;DHT22;52192;52.002;5.956;2023-06-01T08:57:44;19.10;58.50
39045;DHT22;52192;52.002;5.956;2023-06-01T09:00:11;19.20;58.50
39045;DHT22;52192;52.002;5.956;2023-06-01T09:02:37;19.30;58.20
39045;DHT22;52192;52.002;5.956;2023-06-01T09:05:03;19.40;58.00
39045;DHT22;52192;52.002;5.956;2023-06-01T09:07:30;19.40;57.90
39045;DHT22;52192;52.002;5.956;2023-06-01T09:09:57;19.50;57.90
39045;DHT22;52192;52.002;5.956;2023-06-01T09:12:27;19.60;57.80
39045;DHT22;52192;52.002;5.956;2023-06-01T09:15:14;19.80;57.50
39045;DHT22;52192;52.002;5.956;2023-06-01T09:17:44;19.80;57.30
39045;DHT22;52192;52.002;5.956;2023-06-01T09:20:14;19.80;56.40
39045;DHT22;52192;52.002;5.956;2023-06-01T09:22:44;19.80;56.50
39045;DHT22;52192;52.002;5.956;2023-06-01T09:25:12;19.80;56.50
39045;DHT22;52192;52.002;5.956;2023-06-01T09:27:49;19.80;56.30
39045;DHT22;52192;52.002;5.956;2023-06-01T09:30:18;19.80;55.80
39045;DHT22;52192;52.002;5.956;2023-06-01T09:32:44;19.90;55.90
39045;DHT22;52192;52.002;5.956;2023-06-01T09:35:13;20.00;55.50
39045;DHT22;52192;52.002;5.956;2023-06-01T09:37:54;20.00;55.50
39045;DHT22;52192;52.002;5.956;2023-06-01T09:40:20;20.10;55.30
39045;DHT22;52192;52.002;5.956;2023-06-01T09:42:46;20.10;55.20
39045;DHT22;52192;52.002;5.956;2023-06-01T09:45:20;20.20;54.90
39045;DHT22;52192;52.002;5.956;2023-06-01T09:47:47;20.30;54.90
39045;DHT22;52192;52.002;5.956;2023-06-01T09:50:36;20.40;54.10
39045;DHT22;52192;52.002;5.956;2023-06-01T09:53:04;20.40;53.90
39045;DHT22;52192;52.002;5.956;2023-06-01T09:55:30;20.40;53.90
39045;DHT22;52192;52.002;5.956;2023-06-01T09:58:18;20.40;53.90
39045;DHT22;52192;52.002;5.956;2023-06-01T10:00:48;20.50;53.40
39045;DHT22;52192;52.002;5.956;2023-06-01T10:03:15;20.40;53.40
39045;DHT22;52192;52.002;5.956;2023-06-01T10:05:42;20.50;54.00
39045;DHT22;52192;52.002;5.956;2023-06-01T10:08:11;20.70;53.70
39045;DHT22;52192;52.002;5.956;2023-06-01T10:10:38;20.90;53.40
39045;DHT22;52192;52.002;5.956;2023-06-01T10:13:05;21.10;53.40
39045;DHT22;52192;52.002;5.956;2023-06-01T10:15:32;21.30;53.40
39045;DHT22;52192;52.002;5.956;2023-06-01T10:18:02;21.50;53.30
39045;DHT22;52192;52.002;5.956;2023-06-01T10:20:32;21.60;52.90
39045;DHT22;52192;52.002;5.956;2023-06-01T10:22:59;21.80;52.80
39045;DHT22;52192;52.002;5.956;2023-06-01T10:25:26;21.90;52.30
39045;DHT22;52192;52.002;5.956;2023-06-01T10:28:05;22.00;52.30
39045;DHT22;52192;52.002;5.956;2023-06-01T10:30:34;22.20;52.00
39045;DHT22;52192;52.002;5.956;2023-06-01T10:33:00;22.20;51.30
39045;DHT22;52192;52.002;5.956;2023-06-01T10:40:38;22.30;51.50
39045;DHT22;52192;52.002;5.956;2023-06-01T10:43:04;22.40;50.90
39045;DHT22;52192;52.002;5.956;2023-06-01T10:48:00;22.30;50.40
39045;DHT22;52192;52.002;5.956;2023-06-01T10:50:26;22.40;50.70
39045;DHT22;52192;52.002;5.956;2023-06-01T10:52:53;22.50;50.60
39045;DHT22;52192;52.002;5.956;2023-06-01T10:55:21;22.60;50.40
39045;DHT22;52192;52.002;5.956;2023-06-01T10:57:48;22.80;50.30
39045;DHT22;52192;52.002;5.956;2023-06-01T11:02:57;23.30;49.40
39045;DHT22;52192;52.002;5.956;2023-06-01T11:05:44;23.40;49.50
39045;DHT22;52192;52.002;5.956;2023-06-01T11:13:43;23.70;48.80
39045;DHT22;52192;52.002;5.956;2023-06-01T11:21:22;24.10;48.60
39045;DHT22;52192;52.002;5.956;2023-06-01T11:23:49;24.20;48.30
39045;DHT22;52192;52.002;5.956;2023-06-01T11:26:20;24.30;48.10
39045;DHT22;52192;52.002;5.956;2023-06-01T11:28:51;24.30;47.80
39045;DHT22;52192;52.002;5.956;2023-06-01T11:31:18;24.30;47.10
39045;DHT22;52192;52.002;5.956;2023-06-01T11:33:52;24.30;47.60
39045;DHT22;52192;52.002;5.956;2023-06-01T11:36:19;24.40;47.30
39045;DHT22;52192;52.002;5.956;2023-06-01T11:38:46;24.50;47.10
39045;DHT22;52192;52.002;5.956;2023-06-01T11:41:11;24.60;47.10
39045;DHT22;52192;52.002;5.956;2023-06-01T11:43:37;24.70;47.00
39045;DHT22;52192;52.002;5.956;2023-06-01T11:46:04;24.90;47.10
39045;DHT22;52192;52.002;5.956;2023-06-01T11:48:31;25.10;47.00
39045;DHT22;52192;52.002;5.956;2023-06-01T11:50:57;25.30;46.90
39045;DHT22;52192;52.002;5.956;2023-06-01T11:53:26;25.40;46.70
39045;DHT22;52192;52.002;5.956;2023-06-01T11:55:54;25.60;46.10
39045;DHT22;52192;52.002;5.956;2023-06-01T11:58:28;25.60;45.60
39045;DHT22;52192;52.002;5.956;2023-06-01T12:00:55;25.60;45.80
39045;DHT22;52192;52.002;5.956;2023-06-01T12:03:22;25.70;45.70
39045;DHT22;52192;52.002;5.956;2023-06-01T12:05:51;25.60;45.00
39045;DHT22;52192;52.002;5.956;2023-06-01T12:08:24;25.50;45.10
39045;DHT22;52192;52.002;5.956;2023-06-01T12:10:50;25.60;45.40
39045;DHT22;52192;52.002;5.956;2023-06-01T12:13:19;25.70;45.30
39045;DHT22;52192;52.002;5.956;2023-06-01T12:15:46;25.80;45.10
39045;DHT22;52192;52.002;5.956;2023-06-01T12:18:12;25.90;44.80
39045;DHT22;52192;52.002;5.956;2023-06-01T12:20:42;25.80;44.20
39045;DHT22;52192;52.002;5.956;2023-06-01T12:25:55;25.80;44.20
39045;DHT22;52192;52.002;5.956;2023-06-01T12:28:23;25.90;44.10
39045;DHT22;52192;52.002;5.956;2023-06-01T12:31:15;25.90;43.40
39045;DHT22;52192;52.002;5.956;2023-06-01T12:33:41;25.60;43.50
39045;DHT22;52192;52.002;5.956;2023-06-01T12:36:09;25.60;44.20
39045;DHT22;52192;52.002;5.956;2023-06-01T12:38:51;25.90;43.90
39045;DHT22;52192;52.002;5.956;2023-06-01T12:41:17;26.10;43.40
39045;DHT22;52192;52.002;5.956;2023-06-01T12:43:50;26.10;43.80
39045;DHT22;52192;52.002;5.956;2023-06-01T12:46:25;26.20;43.60
39045;DHT22;52192;52.002;5.956;2023-06-01T12:49:11;26.20;43.30
39045;DHT22;52192;52.002;5.956;2023-06-01T12:51:37;26.30;43.40
39045;DHT22;52192;52.002;5.956;2023-06-01T12:54:02;26.50;43.40
39045;DHT22;52192;52.002;5.956;2023-06-01T12:56:28;26.60;43.00
39045;DHT22;52192;52.002;5.956;2023-06-01T12:58:54;26.70;43.10
39045;DHT22;52192;52.002;5.956;2023-06-01T13:01:20;26.80;43.30
39045;DHT22;52192;52.002;5.956;2023-06-01T13:03:45;27.00;43.20
39045;DHT22;52192;52.002;5.956;2023-06-01T13:06:11;27.00;42.90
39045;DHT22;52192;52.002;5.956;2023-06-01T13:08:37;27.10;43.10
39045;DHT22;52192;52.002;5.956;2023-06-01T13:11:03;27.20;42.80
39045;DHT22;52192;52.002;5.956;2023-06-01T13:13:29;27.30;42.70
39045;DHT22;52192;52.002;5.956;2023-06-01T13:15:55;27.20;41.90
39045;DHT22;52192;52.002;5.956;2023-06-01T13:18:21;27.00;42.20
39045;DHT22;52192;52.002;5.956;2023-06-01T13:20:47;26.90;42.50
39045;DHT22;52192;52.002;5.956;2023-06-01T13:23:13;26.90;42.60
39045;DHT22;52192;52.002;5.956;2023-06-01T13:25:39;26.80;42.90
39045;DHT22;52192;52.002;5.956;2023-06-01T13:28:05;26.80;43.50
39045;DHT22;52192;52.002;5.956;2023-06-01T13:30:33;26.90;43.60
39045;DHT22;52192;52.002;5.956;2023-06-01T13:32:59;27.10;44.00
39045;DHT22;52192;52.002;5.956;2023-06-01T13:35:25;27.20;43.90
39045;DHT22;52192;52.002;5.956;2023-06-01T13:37:51;27.30;43.90
39045;DHT22;52192;52.002;5.956;2023-06-01T13:40:18;27.20;43.90
39045;DHT22;52192;52.002;5.956;2023-06-01T13:42:47;27.10;44.00
39045;DHT22;52192;52.002;5.956;2023-06-01T13:45:12;27.10;44.20
39045;DHT22;52192;52.002;5.956;2023-06-01T13:47:38;27.10;44.30
39045;DHT22;52192;52.002;5.956;2023-06-01T13:50:04;27.10;44.10
39045;DHT22;52192;52.002;5.956;2023-06-01T13:52:30;27.00;44.20
39045;DHT22;52192;52.002;5.956;2023-06-01T13:54:56;26.80;43.90
39045;DHT22;52192;52.002;5.956;2023-06-01T13:57:22;26.60;44.30
39045;DHT22;52192;52.002;5.956;2023-06-01T13:59:47;26.40;45.00
39045;DHT22;52192;52.002;5.956;2023-06-01T14:02:13;26.30;44.50
39045;DHT22;52192;52.002;5.956;2023-06-01T14:04:39;26.20;44.40
39045;DHT22;52192;52.002;5.956;2023-06-01T14:07:05;26.10;44.40
39045;DHT22;52192;52.002;5.956;2023-06-01T14:09:31;26.00;44.50
39045;DHT22;52192;52.002;5.956;2023-06-01T14:11:57;25.80;44.40
39045;DHT22;52192;52.002;5.956;2023-06-01T14:14:22;25.80;44.60
39045;DHT22;52192;52.002;5.956;2023-06-01T14:16:48;25.90;44.60
39045;DHT22;52192;52.002;5.956;2023-06-01T14:19:14;26.00;44.60
39045;DHT22;52192;52.002;5.956;2023-06-01T14:21:39;26.10;44.20
39045;DHT22;52192;52.002;5.956;2023-06-01T14:24:06;26.10;44.00
39045;DHT22;52192;52.002;5.956;2023-06-01T14:26:32;26.10;44.00
39045;DHT22;52192;52.002;5.956;2023-06-01T14:28:57;25.90;43.60
39045;DHT22;52192;52.002;5.956;2023-06-01T14:31:23;25.60;44.20
39045;DHT22;52192;52.002;5.956;2023-06-01T14:33:49;25.70;44.50
39045;DHT22;52192;52.002;5.956;2023-06-01T14:36:15;25.90;44.30
39045;DHT22;52192;52.002;5.956;2023-06-01T14:38:41;26.10;43.70
39045;DHT22;52192;52.002;5.956;2023-06-01T14:41:07;26.10;43.30
39045;DHT22;52192;52.002;5.956;2023-06-01T14:43:33;26.10;43.70
39045;DHT22;52192;52.002;5.956;2023-06-01T14:45:58;26.00;43.70
39045;DHT22;52192;52.002;5.956;2023-06-01T14:48:24;26.10;43.60
39045;DHT22;52192;52.002;5.956;2023-06-01T14:50:51;26.00;43.70
39045;DHT22;52192;52.002;5.956;2023-06-01T14:53:17;26.00;43.90
39045;DHT22;52192;52.002;5.956;2023-06-01T14:55:43;25.90;43.60
39045;DHT22;52192;52.002;5.956;2023-06-01T14:58:09;25.80;43.60
39045;DHT22;52192;52.002;5.956;2023-06-01T15:00:36;25.80;43.80
39045;DHT22;52192;52.002;5.956;2023-06-01T15:03:03;25.80;43.90
39045;DHT22;52192;52.002;5.956;2023-06-01T15:05:29;25.80;43.60
39045;DHT22;52192;52.002;5.956;2023-06-01T15:07:54;25.60;43.70
39045;DHT22;52192;52.002;5.956;2023-06-01T15:10:20;25.10;43.60
39045;DHT22;52192;52.002;5.956;2023-06-01T15:12:46;24.80;44.40
39045;DHT22;52192;52.002;5.956;2023-06-01T15:15:13;24.80;44.70
39045;DHT22;52192;52.002;5.956;2023-06-01T15:17:39;24.80;44.90
39045;DHT22;52192;52.002;5.956;2023-06-01T15:20:06;24.80;45.00
39045;DHT22;52192;52.002;5.956;2023-06-01T15:22:32;24.60;44.90
39045;DHT22;52192;52.002;5.956;2023-06-01T15:24:58;24.50;45.50
39045;DHT22;52192;52.002;5.956;2023-06-01T15:27:24;24.60;45.60
39045;DHT22;52192;52.002;5.956;2023-06-01T15:29:50;24.70;45.30
39045;DHT22;52192;52.002;5.956;2023-06-01T15:32:16;24.80;44.90
39045;DHT22;52192;52.002;5.956;2023-06-01T15:34:41;24.70;44.90
39045;DHT22;52192;52.002;5.956;2023-06-01T15:37:11;24.40;44.80
39045;DHT22;52192;52.002;5.956;2023-06-01T15:39:38;24.10;45.20
39045;DHT22;52192;52.002;5.956;2023-06-01T15:42:09;23.90;45.50
39045;DHT22;52192;52.002;5.956;2023-06-01T15:44:42;23.90;45.80
39045;DHT22;52192;52.002;5.956;2023-06-01T15:47:09;23.90;46.00
39045;DHT22;52192;52.002;5.956;2023-06-01T15:49:36;23.90;46.10
39045;DHT22;52192;52.002;5.956;2023-06-01T15:52:02;23.80;46.20
39045;DHT22;52192;52.002;5.956;2023-06-01T15:54:31;23.80;46.30
39045;DHT22;52192;52.002;5.956;2023-06-01T15:56:57;23.60;46.50
39045;DHT22;52192;52.002;5.956;2023-06-01T15:59:23;23.40;46.80
39045;DHT22;52192;52.002;5.956;2023-06-01T16:01:48;23.30;47.00
39045;DHT22;52192;52.002;5.956;2023-06-01T16:04:14;23.40;46.90
39045;DHT22;52192;52.002;5.956;2023-06-01T16:06:40;23.50;46.70
39045;DHT22;52192;52.002;5.956;2023-06-01T16:09:07;23.30;46.70
39045;DHT22;52192;52.002;5.956;2023-06-01T16:11:33;23.10;47.00